Time;durP1;ratioP1;P1;durP2;ratioP2;P2;SDS_P1;SDS_P2;PMS_P1;PMS_P2;Temp;Humidity;BMP_temperature;BMP_pressure;BME280_temperature;BME280_humidity;BME280_pressure;Samples;Min_cycle;Max_cycle;Signal;HPM_P1;HPM_P2
2022/12/14 00:01:16;;;;;;;13.40;8.50;;;1.00;82.80;;;;;;4997660;28;20540;-76
2022/12/14 00:03:45;;;;;;;13.23;9.10;;;1.00;82.90;;;;;;4998296;28;20472;-76
2022/12/14 00:06:13;;;;;;;12.20;9.30;;;1.00;82.70;;;;;;4995949;28;21012;-76
2022/12/14 00:08:40;;;;;;;12.40;8.43;;;1.00;82.70;;;;;;4996212;28;20453;-77
2022/12/14 00:11:14;;;;;;;12.93;8.27;;;1.00;82.40;;;;;;4996685;28;20459;-77
2022/12/14 00:13:41;;;;;;;12.70;8.23;;;1.00;82.30;;;;;;4996427;28;20433;-77
2022/12/14 00:16:09;;;;;;;14.70;9.50;;;1.10;82.40;;;;;;4996481;28;20453;-77
2022/12/14 00:18:37;;;;;;;12.83;8.40;;;1.10;82.40;;;;;;4995866;28;20480;-77
2022/12/14 00:21:06;;;;;;;13.90;9.20;;;1.10;82.50;;;;;;4996242;28;20814;-77
2022/12/14 00:23:33;;;;;;;17.43;8.17;;;1.10;82.40;;;;;;4995776;28;20448;-77
2022/12/14 00:26:07;;;;;;;13.53;9.00;;;1.10;82.20;;;;;;4995647;28;20488;-77
2022/12/14 00:28:36;;;;;;;11.53;8.07;;;1.10;82.10;;;;;;4996389;28;20433;-77
2022/12/14 00:31:03;;;;;;;13.10;8.90;;;1.10;82.10;;;;;;4996130;28;20433;-77
2022/12/14 00:33:30;;;;;;;11.07;8.00;;;1.10;82.10;;;;;;4996292;28;20445;-77
2022/12/14 00:36:09;;;;;;;16.20;9.00;;;1.10;82.10;;;;;;4995654;28;20960;-77
2022/12/14 00:38:36;;;;;;;13.77;8.63;;;1.10;81.90;;;;;;4996019;28;20444;-77
2022/12/14 00:41:03;;;;;;;14.70;7.83;;;1.10;81.70;;;;;;4994801;28;20950;-77
2022/12/14 00:43:30;;;;;;;10.97;8.40;;;1.10;82.00;;;;;;4996004;28;20444;-75
2022/12/14 00:45:57;;;;;;;13.63;9.43;;;1.10;82.00;;;;;;4996235;28;20453;-76
2022/12/14 00:48:25;;;;;;;12.30;8.33;;;1.10;82.00;;;;;;4995433;28;20791;-77
2022/12/14 00:50:53;;;;;;;12.00;8.80;;;1.20;82.10;;;;;;4995573;28;20455;-77
2022/12/14 00:53:22;;;;;;;13.40;7.57;;;1.10;81.90;;;;;;4995124;28;20449;-77
2022/12/14 00:55:49;;;;;;;13.93;9.23;;;1.10;81.80;;;;;;4995832;28;20459;-77
2022/12/14 00:58:18;;;;;;;13.07;7.97;;;1.10;81.90;;;;;;4995165;28;20480;-77
2022/12/14 01:00:47;;;;;;;12.13;7.60;;;1.10;81.90;;;;;;4994839;28;20973;-77
2022/12/14 01:03:14;;;;;;;10.17;7.10;;;1.10;81.70;;;;;;4994875;28;20447;-77
2022/12/14 01:05:41;;;;;;;12.87;8.50;;;1.10;81.80;;;;;;4994851;28;20480;-77
2022/12/14 01:08:08;;;;;;;12.87;7.87;;;1.10;82.00;;;;;;4995108;28;20480;-77
2022/12/14 01:10:39;;;;;;;12.97;8.53;;;1.10;82.60;;;;;;4994598;28;20453;-77
2022/12/14 01:13:06;;;;;;;11.43;8.17;;;1.10;81.60;;;;;;4994829;28;20904;-77
2022/12/14 01:15:34;;;;;;;11.97;8.43;;;1.10;81.80;;;;;;4994813;28;20920;-77
2022/12/14 01:18:01;;;;;;;11.70;8.87;;;1.10;82.10;;;;;;4994691;28;20453;-77
2022/12/14 01:20:28;;;;;;;10.73;7.07;;;1.10;82.20;;;;;;4994462;28;20445;-77
2022/12/14 01:22:55;;;;;;;12.10;7.97;;;1.10;82.10;;;;;;4994409;28;20449;-77
2022/12/14 01:25:26;;;;;;;12.77;8.00;;;1.20;82.10;;;;;;5002592;28;20468;-77
2022/12/14 01:27:54;;;;;;;11.33;7.00;;;1.20;81.80;;;;;;5013897;28;20895;-77
2022/12/14 01:30:21;;;;;;;8.97;6.83;;;1.20;81.40;;;;;;5014312;28;20451;-77
2022/12/14 01:32:52;;;;;;;12.00;7.80;;;1.20;81.40;;;;;;5013924;28;20471;-77
2022/12/14 01:35:19;;;;;;;11.37;7.63;;;1.20;81.20;;;;;;5013713;28;20464;-77
2022/12/14 01:37:46;;;;;;;8.50;6.73;;;1.20;81.20;;;;;;5013899;28;20804;-77
2022/12/14 01:40:12;;;;;;;13.33;8.10;;;1.20;81.30;;;;;;5014174;28;20448;-77
2022/12/14 01:42:39;;;;;;;11.40;7.37;;;1.20;81.20;;;;;;5013792;28;20454;-77
2022/12/14 01:45:20;;;;;;;9.00;7.10;;;1.20;81.00;;;;;;5013922;28;20990;-77
2022/12/14 01:47:53;;;;;;;11.13;8.03;;;1.20;81.00;;;;;;5014053;28;20475;-77
2022/12/14 01:50:29;;;;;;;9.10;6.87;;;1.20;81.20;;;;;;5006565;28;20496;-77
2022/12/14 01:52:59;;;;;;;9.80;7.67;;;1.20;81.10;;;;;;4994050;28;20634;-77
2022/12/14 01:55:29;;;;;;;12.83;8.00;;;1.20;81.00;;;;;;4994120;28;20465;-77
2022/12/14 01:58:02;;;;;;;11.47;6.73;;;1.20;81.00;;;;;;4994318;28;21142;-77
2022/12/14 02:00:30;;;;;;;9.40;6.87;;;1.20;80.90;;;;;;4994219;28;20436;-77
2022/12/14 02:03:01;;;;;;;10.83;7.13;;;1.20;80.80;;;;;;4993782;28;20453;-77
2022/12/14 02:05:29;;;;;;;11.57;7.30;;;1.20;80.80;;;;;;4993968;28;20479;-77
2022/12/14 02:07:57;;;;;;;13.60;7.27;;;1.20;81.00;;;;;;4994009;28;20496;-78
2022/12/14 02:10:26;;;;;;;9.90;7.10;;;1.20;80.80;;;;;;4994188;28;20852;-77
2022/12/14 02:12:57;;;;;;;7.80;6.40;;;1.20;80.40;;;;;;4993886;28;20491;-77
2022/12/14 02:15:34;;;;;;;12.27;7.87;;;1.20;80.10;;;;;;4994093;28;20882;-77
2022/12/14 02:18:03;;;;;;;10.93;7.67;;;1.10;79.90;;;;;;4994016;28;20429;-77
2022/12/14 02:20:41;;;;;;;10.20;6.37;;;1.10;79.80;;;;;;4994419;28;20459;-77
2022/12/14 02:23:32;;;;;;;9.90;7.13;;;1.10;79.60;;;;;;4993859;28;20436;-77
2022/12/14 02:26:51;;;;;;;9.70;6.13;;;1.10;80.00;;;;;;4993989;28;20463;-76
2022/12/14 02:29:34;;;;;;;10.13;6.87;;;1.00;80.00;;;;;;4981673;28;20503;-77
2022/12/14 02:32:10;;;;;;;7.20;5.93;;;1.00;80.00;;;;;;4998738;28;20444;-77
2022/12/14 02:34:49;;;;;;;10.93;7.10;;;1.00;79.70;;;;;;4997795;28;20472;-77
2022/12/14 02:37:22;;;;;;;9.77;7.23;;;1.00;79.80;;;;;;4997409;28;20420;-77
2022/12/14 02:39:59;;;;;;;10.90;7.23;;;1.00;80.40;;;;;;4997446;28;20809;-77
2022/12/14 02:42:37;;;;;;;11.47;7.00;;;1.00;80.50;;;;;;4997019;28;20931;-77
2022/12/14 02:45:10;;;;;;;12.50;6.97;;;1.00;80.30;;;;;;4997422;28;20464;-77
2022/12/14 02:47:45;;;;;;;11.43;7.27;;;1.00;81.20;;;;;;4997072;28;20475;-77
2022/12/14 02:50:18;;;;;;;10.43;6.87;;;1.00;80.50;;;;;;4997560;28;20462;-77
2022/12/14 02:52:52;;;;;;;10.57;6.13;;;1.00;80.30;;;;;;4997052;28;20797;-77
2022/12/14 02:55:24;;;;;;;11.57;7.20;;;1.00;80.40;;;;;;4997130;28;20468;-77
2022/12/14 02:57:54;;;;;;;8.17;6.47;;;1.00;80.60;;;;;;4996906;28;20425;-77
2022/12/14 03:00:24;;;;;;;8.33;6.50;;;1.00;80.90;;;;;;4997033;28;20467;-77
2022/12/14 03:02:52;;;;;;;9.13;6.63;;;1.00;81.10;;;;;;4997010;28;20448;-77
2022/12/14 03:05:19;;;;;;;10.30;7.43;;;1.00;81.30;;;;;;4996977;28;20876;-77
2022/12/14 03:07:49;;;;;;;9.40;6.67;;;1.00;81.50;;;;;;4996954;28;20483;-77
2022/12/14 03:10:25;;;;;;;10.20;7.20;;;1.00;81.40;;;;;;5010044;28;20443;-77
2022/12/14 03:12:56;;;;;;;11.73;6.80;;;1.00;81.50;;;;;;5016406;28;20435;-77
2022/12/14 03:15:26;;;;;;;10.07;6.87;;;1.00;81.50;;;;;;5016393;28;20464;-77
2022/12/14 03:18:01;;;;;;;11.17;6.40;;;1.00;81.50;;;;;;5015953;28;20936;-77
2022/12/14 03:20:33;;;;;;;9.80;6.77;;;1.00;81.60;;;;;;5016233;28;20841;-77
2022/12/14 03:23:04;;;;;;;12.20;6.53;;;1.00;81.60;;;;;;5015752;28;20913;-77
2022/12/14 03:25:41;;;;;;;12.23;6.93;;;1.00;81.70;;;;;;5016104;28;20478;-77
2022/12/14 03:28:13;;;;;;;9.63;6.70;;;1.00;81.70;;;;;;5016090;28;20471;-77
2022/12/14 03:30:44;;;;;;;9.20;6.40;;;1.00;81.70;;;;;;5015990;28;20431;-77
2022/12/14 03:33:15;;;;;;;9.90;6.07;;;1.00;81.60;;;;;;5015866;28;20436;-77
2022/12/14 03:35:46;;;;;;;9.43;6.00;;;1.00;81.60;;;;;;5015554;28;20542;-77
2022/12/14 03:38:19;;;;;;;9.80;7.20;;;1.00;81.70;;;;;;5015768;28;20448;-77
2022/12/14 03:40:54;;;;;;;11.13;6.60;;;1.00;81.50;;;;;;5015464;28;20432;-77
2022/12/14 03:43:27;;;;;;;8.97;6.17;;;1.00;81.30;;;;;;5015605;28;20427;-76
2022/12/14 03:46:01;;;;;;;9.57;6.80;;;1.00;81.00;;;;;;5015806;28;20440;-77
2022/12/14 03:48:34;;;;;;;10.50;7.00;;;0.90;80.60;;;;;;5015812;28;20478;-77
2022/12/14 03:51:07;;;;;;;12.47;6.60;;;0.90;80.30;;;;;;5015494;28;20432;-77
2022/12/14 03:53:42;;;;;;;10.93;6.27;;;0.90;80.50;;;;;;5015214;28;20921;-77
2022/12/14 03:56:16;;;;;;;7.67;5.40;;;0.90;80.40;;;;;;5016903;28;20444;-77
2022/12/14 03:58:51;;;;;;;10.07;7.03;;;0.90;80.20;;;;;;5015753;28;20774;-76
2022/12/14 04:01:25;;;;;;;9.50;6.40;;;0.90;80.20;;;;;;5015163;28;20986;-77
2022/12/14 04:04:01;;;;;;;9.00;6.30;;;0.90;80.20;;;;;;5015184;28;20463;-77
2022/12/14 04:06:37;;;;;;;8.53;5.97;;;0.90;80.10;;;;;;5015232;28;20436;-76
2022/12/14 04:09:16;;;;;;;10.53;6.17;;;0.90;80.10;;;;;;5015930;28;20428;-77
2022/12/14 04:20:17;;;;;;;12.70;6.80;;;0.90;80.70;;;;;;5016955;28;20547;-74
2022/12/14 04:22:48;;;;;;;9.20;6.73;;;1.00;80.90;;;;;;5017875;28;20907;-74
2022/12/14 04:29:54;;;;;;;10.43;6.70;;;0.90;81.00;;;;;;5007413;28;20491;-77
2022/12/14 04:30:57;;;;;;;9.03;6.20;;;1.00;80.70;;;;;;5014554;28;20527;-77
2022/12/14 04:36:21;;;;;;;9.50;6.47;;;1.00;80.60;;;;;;4999876;28;20448;-77
2022/12/14 04:38:54;;;;;;;8.37;6.43;;;1.00;80.50;;;;;;4996543;28;20425;-77
2022/12/14 04:41:24;;;;;;;11.20;6.40;;;1.00;80.50;;;;;;4996444;28;20795;-77
2022/12/14 04:43:54;;;;;;;11.73;7.43;;;1.00;80.80;;;;;;4995723;28;20985;-75
2022/12/14 04:46:26;;;;;;;10.20;6.70;;;1.00;80.90;;;;;;5014334;28;20452;-78
2022/12/14 04:49:01;;;;;;;11.93;6.70;;;1.00;80.70;;;;;;5015167;28;20478;-78
2022/12/14 04:51:33;;;;;;;13.87;7.33;;;1.00;80.70;;;;;;4998058;28;20555;-78
2022/12/14 04:54:04;;;;;;;9.60;6.37;;;1.00;80.70;;;;;;4995265;28;20855;-75
2022/12/14 04:56:39;;;;;;;10.17;5.50;;;1.00;80.60;;;;;;5015131;28;20822;-75
2022/12/14 04:59:06;;;;;;;8.80;7.43;;;1.00;80.60;;;;;;5005541;28;20443;-75
2022/12/14 05:01:44;;;;;;;10.20;6.53;;;1.00;80.70;;;;;;5015417;28;20527;-78
2022/12/14 05:04:25;;;;;;;10.17;6.70;;;1.00;80.70;;;;;;4999376;28;20477;-78
2022/12/14 05:07:04;;;;;;;10.67;6.90;;;1.00;80.60;;;;;;5009479;28;20448;-78
2022/12/14 05:09:37;;;;;;;7.83;5.57;;;1.00;80.70;;;;;;5014848;28;20440;-77
2022/12/14 05:12:10;;;;;;;9.80;5.60;;;1.00;80.90;;;;;;5015700;28;20428;-77
2022/12/14 05:14:43;;;;;;;8.00;6.00;;;1.00;80.80;;;;;;5014951;28;20475;-75
2022/12/14 05:17:10;;;;;;;8.90;6.03;;;1.00;80.90;;;;;;5014701;28;21023;-76
2022/12/14 05:19:44;;;;;;;8.53;7.17;;;1.00;81.10;;;;;;5014419;28;20459;-75
2022/12/14 05:22:11;;;;;;;10.90;6.97;;;1.00;81.20;;;;;;4997679;28;20449;-76
2022/12/14 05:24:38;;;;;;;9.90;5.50;;;1.00;81.50;;;;;;4995292;28;20469;-76
2022/12/14 05:27:05;;;;;;;9.30;6.17;;;1.00;81.70;;;;;;4994588;28;20843;-76
2022/12/14 05:29:32;;;;;;;16.33;8.17;;;1.10;81.70;;;;;;4994787;28;20449;-76
2022/12/14 05:31:59;;;;;;;12.67;7.53;;;1.10;81.50;;;;;;5012297;28;20447;-76
2022/12/14 05:34:26;;;;;;;12.47;7.30;;;1.00;81.50;;;;;;5014369;28;20467;-76
2022/12/14 05:36:54;;;;;;;12.13;6.43;;;1.00;81.60;;;;;;5014466;28;20452;-76
2022/12/14 05:39:21;;;;;;;10.77;6.80;;;1.10;81.70;;;;;;5014197;28;20563;-76
2022/12/14 05:41:47;;;;;;;8.53;6.00;;;1.10;81.80;;;;;;5013801;28;20980;-76
2022/12/14 05:44:14;;;;;;;8.27;6.60;;;1.10;81.90;;;;;;5007622;28;20472;-76
2022/12/14 05:46:41;;;;;;;9.17;6.43;;;1.10;82.00;;;;;;4994733;28;20445;-76
2022/12/14 05:49:08;;;;;;;8.60;6.30;;;1.10;82.00;;;;;;4994524;28;20503;-76
2022/12/14 05:51:35;;;;;;;7.87;5.70;;;1.10;82.10;;;;;;5005336;28;20454;-76
2022/12/14 05:54:04;;;;;;;8.90;6.77;;;1.10;82.10;;;;;;5014064;28;20475;-76
2022/12/14 05:56:30;;;;;;;8.97;6.67;;;1.10;81.90;;;;;;5014623;28;20448;-76
2022/12/14 05:58:57;;;;;;;7.97;5.53;;;1.10;81.80;;;;;;5014765;28;20447;-76
2022/12/14 06:01:25;;;;;;;8.67;6.27;;;1.10;81.70;;;;;;5013785;28;20462;-76
2022/12/14 06:03:52;;;;;;;10.63;7.20;;;1.10;81.50;;;;;;5012914;28;20998;-76
2022/12/14 06:06:18;;;;;;;8.47;6.53;;;1.10;81.50;;;;;;5014830;28;20451;-76
2022/12/14 06:08:46;;;;;;;8.30;6.30;;;1.10;81.40;;;;;;5021191;28;20475;-76
2022/12/14 06:11:16;;;;;;;8.03;5.87;;;1.10;81.70;;;;;;5028794;28;20455;-75
2022/12/14 06:13:43;;;;;;;10.10;6.50;;;1.10;82.00;;;;;;5025119;28;20502;-75
2022/12/14 06:16:12;;;;;;;6.87;5.70;;;1.10;82.20;;;;;;5018526;28;20461;-76
2022/12/14 06:18:44;;;;;;;8.50;6.53;;;1.10;82.30;;;;;;5017500;28;20963;-76
2022/12/14 06:21:11;;;;;;;8.60;6.07;;;1.10;82.10;;;;;;5010286;28;20463;-76
2022/12/14 06:23:37;;;;;;;6.83;5.60;;;1.10;82.10;;;;;;5013707;28;20458;-76
2022/12/14 06:26:04;;;;;;;9.10;6.27;;;1.20;82.00;;;;;;5017084;28;20455;-76
2022/12/14 06:28:32;;;;;;;6.63;5.37;;;1.10;82.00;;;;;;5016850;28;20971;-77
2022/12/14 06:30:59;;;;;;;10.97;6.13;;;1.10;82.00;;;;;;5017063;28;20452;-77
2022/12/14 06:33:26;;;;;;;9.83;5.43;;;1.20;82.00;;;;;;5017013;28;20467;-77
2022/12/14 06:35:53;;;;;;;8.03;5.97;;;1.20;81.70;;;;;;5017423;28;20448;-77
2022/12/14 06:38:20;;;;;;;9.50;7.03;;;1.20;81.50;;;;;;5016756;28;20905;-76
2022/12/14 06:40:47;;;;;;;6.57;5.30;;;1.20;81.50;;;;;;5017155;28;20478;-77
2022/12/14 06:43:13;;;;;;;11.40;6.60;;;1.20;81.50;;;;;;5016725;28;20447;-77
2022/12/14 06:45:42;;;;;;;8.73;5.63;;;1.10;81.50;;;;;;5016604;28;20499;-77
2022/12/14 06:48:08;;;;;;;8.57;6.13;;;1.10;81.70;;;;;;5008922;28;20492;-76
2022/12/14 06:50:35;;;;;;;11.40;6.50;;;1.20;81.90;;;;;;5012403;28;20447;-77
2022/12/14 06:53:02;;;;;;;9.43;6.30;;;1.20;82.00;;;;;;5005874;28;20815;-76
2022/12/14 06:55:29;;;;;;;10.80;6.77;;;1.10;81.90;;;;;;4997010;28;20998;-77
2022/12/14 06:57:56;;;;;;;9.13;6.57;;;1.20;82.10;;;;;;4997275;28;20449;-77
2022/12/14 07:00:24;;;;;;;9.47;5.50;;;1.20;82.20;;;;;;4996948;28;20452;-77
2022/12/14 07:02:52;;;;;;;10.33;6.47;;;1.20;82.30;;;;;;4996907;28;20560;-77
2022/12/14 07:05:19;;;;;;;10.90;7.00;;;1.20;82.20;;;;;;4996802;28;20472;-77
2022/12/14 07:07:46;;;;;;;8.30;6.20;;;1.20;82.20;;;;;;5006310;28;20949;-77
2022/12/14 07:10:13;;;;;;;10.43;6.77;;;1.20;82.20;;;;;;5003213;28;20492;-77
2022/12/14 07:12:40;;;;;;;10.83;6.70;;;1.20;82.20;;;;;;4997074;28;20451;-77
2022/12/14 07:15:07;;;;;;;8.03;6.97;;;1.10;82.10;;;;;;4996382;28;20844;-76
2022/12/14 07:17:36;;;;;;;9.10;6.07;;;1.20;82.20;;;;;;4996651;28;20515;-77
2022/12/14 07:20:05;;;;;;;12.10;7.43;;;1.20;82.20;;;;;;4996654;28;20437;-76
2022/12/14 07:22:32;;;;;;;9.40;6.43;;;1.20;82.10;;;;;;4996428;28;20449;-77
2022/12/14 07:24:59;;;;;;;11.20;7.30;;;1.20;82.10;;;;;;4996335;28;20480;-77
2022/12/14 07:27:28;;;;;;;8.80;6.53;;;1.20;82.30;;;;;;4996153;28;20471;-77
2022/12/14 07:29:54;;;;;;;12.73;6.57;;;1.20;82.30;;;;;;4996355;28;20503;-77
2022/12/14 07:32:21;;;;;;;10.20;6.50;;;1.20;82.30;;;;;;5005988;28;20455;-77
2022/12/14 07:34:48;;;;;;;11.90;8.10;;;1.20;81.90;;;;;;5015782;28;20826;-77
2022/12/14 07:37:16;;;;;;;12.47;7.23;;;1.20;81.90;;;;;;5017009;28;20428;-77
2022/12/14 07:39:43;;;;;;;11.87;8.30;;;1.20;81.90;;;;;;5003839;28;20457;-76
2022/12/14 07:42:09;;;;;;;11.80;7.00;;;1.20;82.00;;;;;;5007004;28;20963;-76
2022/12/14 07:44:36;;;;;;;14.10;7.53;;;1.20;82.00;;;;;;5014197;28;20484;-76
2022/12/14 07:47:03;;;;;;;11.90;7.40;;;1.20;82.20;;;;;;5010247;28;20472;-76
2022/12/14 07:49:29;;;;;;;8.67;7.10;;;1.20;82.30;;;;;;5011473;28;20495;-76
2022/12/14 07:51:56;;;;;;;16.63;7.60;;;1.20;82.10;;;;;;5012103;28;20995;-75
2022/12/14 07:54:25;;;;;;;10.17;7.47;;;1.10;81.70;;;;;;5015712;28;20501;-75
2022/12/14 07:56:52;;;;;;;11.90;7.70;;;1.10;81.90;;;;;;5014877;28;20463;-76
2022/12/14 07:59:20;;;;;;;10.80;7.13;;;1.10;82.00;;;;;;5015723;28;20456;-76
2022/12/14 08:01:46;;;;;;;8.27;6.57;;;1.20;82.10;;;;;;5002941;28;20960;-76
2022/12/14 08:04:15;;;;;;;10.80;7.63;;;1.20;82.30;;;;;;5011008;28;20487;-77
2022/12/14 08:06:42;;;;;;;14.70;7.77;;;1.30;82.40;;;;;;5015647;28;20439;-77
2022/12/14 08:09:10;;;;;;;12.63;7.40;;;1.30;82.40;;;;;;5015708;28;20843;-77
2022/12/14 08:11:39;;;;;;;10.87;7.13;;;1.30;82.30;;;;;;5015479;28;20944;-77
2022/12/14 08:14:08;;;;;;;11.60;7.50;;;1.30;82.10;;;;;;5015490;28;20475;-77
2022/12/14 08:16:35;;;;;;;13.30;7.93;;;1.40;82.10;;;;;;5015121;28;20444;-77
2022/12/14 08:19:02;;;;;;;12.13;7.93;;;1.40;82.00;;;;;;5015602;28;20792;-77
2022/12/14 08:21:29;;;;;;;12.87;8.30;;;1.40;81.90;;;;;;5015073;28;20459;-77
2022/12/14 08:23:57;;;;;;;12.27;7.80;;;1.50;81.80;;;;;;5014875;28;20471;-77
2022/12/14 08:26:25;;;;;;;16.43;9.50;;;1.50;81.70;;;;;;5014074;28;20559;-77
2022/12/14 08:28:54;;;;;;;13.70;8.50;;;1.50;81.70;;;;;;5015112;28;20475;-76
2022/12/14 08:31:23;;;;;;;14.80;9.37;;;1.60;81.70;;;;;;5014598;28;20448;-77
2022/12/14 08:33:50;;;;;;;12.87;9.00;;;1.60;81.40;;;;;;5014521;28;20992;-77
2022/12/14 08:36:20;;;;;;;12.60;8.77;;;1.60;81.10;;;;;;5015114;28;20823;-77
2022/12/14 08:38:52;;;;;;;12.10;8.57;;;1.60;81.10;;;;;;5015086;28;20443;-77
2022/12/14 08:41:19;;;;;;;14.67;8.40;;;1.70;81.20;;;;;;5014996;28;20428;-77
2022/12/14 08:43:49;;;;;;;12.83;7.87;;;1.70;81.00;;;;;;5014874;28;20820;-77
2022/12/14 08:46:18;;;;;;;11.80;7.87;;;1.70;80.90;;;;;;5014638;28;20440;-77
2022/12/14 08:48:44;;;;;;;16.20;7.83;;;1.80;80.90;;;;;;5014264;28;20490;-77
2022/12/14 08:51:11;;;;;;;10.03;7.20;;;1.80;80.90;;;;;;5014560;28;20455;-77
2022/12/14 08:53:38;;;;;;;11.50;7.80;;;1.80;80.90;;;;;;5014342;28;20466;-76
2022/12/14 08:56:07;;;;;;;9.60;6.60;;;1.90;81.00;;;;;;5014383;28;20448;-77
2022/12/14 08:58:34;;;;;;;14.33;7.93;;;2.00;81.10;;;;;;5014404;28;20538;-77
2022/12/14 09:01:03;;;;;;;14.73;7.40;;;2.00;81.20;;;;;;5014384;28;20428;-77
2022/12/14 09:03:31;;;;;;;8.77;6.53;;;2.10;81.20;;;;;;5014370;28;20502;-77
2022/12/14 09:06:02;;;;;;;10.30;6.53;;;2.10;81.00;;;;;;5014443;28;20480;-76
2022/12/14 09:08:28;;;;;;;8.83;6.67;;;2.10;80.70;;;;;;5014198;28;20488;-76
2022/12/14 09:10:55;;;;;;;9.57;6.77;;;2.20;80.40;;;;;;5014322;28;20452;-76
2022/12/14 09:13:22;;;;;;;8.50;6.67;;;2.20;80.20;;;;;;5013891;28;20908;-76
2022/12/14 09:15:57;;;;;;;9.90;7.30;;;2.30;80.20;;;;;;5014217;28;20455;-76
2022/12/14 09:18:24;;;;;;;9.27;7.20;;;2.30;80.10;;;;;;5014006;28;20467;-76
2022/12/14 09:20:53;;;;;;;10.27;6.73;;;2.30;79.90;;;;;;5014022;28;20817;-76
2022/12/14 09:23:20;;;;;;;11.90;7.23;;;2.30;79.70;;;;;;5014050;28;20459;-76
2022/12/14 09:25:47;;;;;;;9.80;6.57;;;2.40;79.70;;;;;;5013692;28;20474;-76
2022/12/14 09:28:13;;;;;;;10.90;7.30;;;2.40;79.50;;;;;;5014057;28;20428;-76
2022/12/14 09:30:40;;;;;;;10.13;8.13;;;2.40;79.40;;;;;;5013742;28;20457;-76
2022/12/14 09:33:06;;;;;;;10.50;7.90;;;2.40;79.30;;;;;;5013528;28;20952;-76
2022/12/14 09:35:33;;;;;;;11.40;7.47;;;2.50;79.40;;;;;;5013749;28;20841;-76
2022/12/14 09:38:02;;;;;;;13.57;7.33;;;2.50;79.30;;;;;;5013931;28;20457;-76
2022/12/14 09:40:32;;;;;;;11.93;7.90;;;2.50;79.10;;;;;;5013919;28;20486;-76
2022/12/14 09:43:04;;;;;;;10.90;7.23;;;2.50;79.00;;;;;;5013767;28;20436;-76
2022/12/14 09:45:33;;;;;;;13.20;8.20;;;2.60;79.00;;;;;;5013699;28;20814;-76
2022/12/14 09:48:07;;;;;;;10.60;7.10;;;2.70;79.10;;;;;;5013590;28;20509;-76
2022/12/14 09:50:34;;;;;;;11.57;7.40;;;2.70;78.90;;;;;;5013587;28;20475;-77
2022/12/14 09:53:06;;;;;;;13.00;7.60;;;2.80;78.70;;;;;;5013277;28;21001;-77
2022/12/14 09:55:35;;;;;;;10.13;6.70;;;2.80;78.30;;;;;;5013425;28;20480;-76
2022/12/14 09:58:10;;;;;;;10.93;7.37;;;2.90;78.00;;;;;;5013319;28;20786;-77
2022/12/14 10:00:42;;;;;;;9.80;6.37;;;3.00;77.80;;;;;;5013499;28;20796;-76
2022/12/14 10:03:28;;;;;;;9.90;7.23;;;3.00;77.40;;;;;;5014033;28;20464;-77
2022/12/14 10:06:15;;;;;;;15.00;7.93;;;3.10;77.10;;;;;;5013165;28;20940;-76
2022/12/14 10:08:50;;;;;;;11.80;7.67;;;3.10;76.90;;;;;;5013403;28;20507;-76
2022/12/14 10:11:28;;;;;;;11.20;7.77;;;3.10;76.60;;;;;;5013538;28;20441;-76
2022/12/14 10:14:09;;;;;;;9.23;6.80;;;3.20;76.50;;;;;;5013464;28;20475;-76
2022/12/14 10:16:45;;;;;;;10.20;7.60;;;3.40;76.40;;;;;;5013109;28;20436;-76
2022/12/14 10:19:28;;;;;;;12.77;8.43;;;3.40;75.80;;;;;;5013130;28;20440;-76
2022/12/14 10:21:58;;;;;;;14.23;7.60;;;3.50;75.40;;;;;;5013026;28;20936;-76
2022/12/14 10:24:33;;;;;;;13.70;8.10;;;3.60;75.00;;;;;;5013413;28;20472;-76
2022/12/14 10:27:01;;;;;;;14.20;7.43;;;3.60;74.70;;;;;;5013043;28;20456;-76
2022/12/14 10:29:33;;;;;;;9.67;7.60;;;3.70;74.60;;;;;;5013072;28;20481;-76
2022/12/14 10:32:12;;;;;;;12.10;7.90;;;3.70;74.30;;;;;;5013342;28;20440;-76
2022/12/14 10:34:42;;;;;;;16.43;8.77;;;3.80;73.60;;;;;;5013883;28;20546;-76
2022/12/14 10:37:20;;;;;;;11.30;7.53;;;3.80;73.10;;;;;;5015445;28;20460;-76
2022/12/14 10:39:57;;;;;;;15.33;8.27;;;3.90;72.20;;;;;;5015828;28;20505;-76
2022/12/14 10:42:31;;;;;;;12.17;8.70;;;3.90;71.50;;;;;;5013780;28;20457;-76
2022/12/14 10:45:11;;;;;;;13.80;8.47;;;3.90;70.50;;;;;;5015070;28;20486;-76
2022/12/14 10:47:42;;;;;;;8.87;7.57;;;4.00;69.50;;;;;;5014994;28;20524;-76
2022/12/14 10:50:19;;;;;;;13.10;8.57;;;4.00;69.30;;;;;;5010164;28;20476;-76
2022/12/14 10:52:50;;;;;;;12.57;7.57;;;4.10;68.50;;;;;;4997811;28;20446;-76
2022/12/14 10:55:22;;;;;;;12.30;8.13;;;4.20;68.60;;;;;;4998409;28;20475;-76
2022/12/14 10:57:49;;;;;;;11.93;8.03;;;4.40;69.10;;;;;;4998645;28;20445;-76
2022/12/14 11:00:17;;;;;;;8.77;7.40;;;4.60;69.10;;;;;;4998512;28;20449;-76
2022/12/14 11:02:47;;;;;;;10.33;8.53;;;4.80;68.70;;;;;;4998265;28;20785;-76
2022/12/14 11:05:23;;;;;;;12.93;8.20;;;5.00;68.30;;;;;;4998069;28;20467;-76
2022/12/14 11:07:50;;;;;;;12.87;9.33;;;5.20;67.10;;;;;;4998035;28;20501;-75
2022/12/14 11:10:20;;;;;;;12.63;8.10;;;5.30;65.20;;;;;;4997914;28;20489;-76
2022/12/14 11:12:59;;;;;;;14.50;9.13;;;5.40;63.80;;;;;;4997790;28;20436;-76
2022/12/14 11:15:29;;;;;;;13.57;8.90;;;5.40;62.00;;;;;;4997941;28;20495;-75
2022/12/14 11:18:01;;;;;;;11.53;8.57;;;5.40;61.50;;;;;;5006241;28;20442;-76
2022/12/14 11:20:28;;;;;;;10.60;8.80;;;5.50;61.50;;;;;;5007838;28;20446;-76
2022/12/14 11:22:57;;;;;;;12.80;9.03;;;5.60;61.70;;;;;;5001541;28;20806;-77
2022/12/14 11:25:40;;;;;;;15.53;8.73;;;5.70;62.00;;;;;;4998345;28;20881;-76
2022/12/14 11:28:28;;;;;;;11.67;7.73;;;5.80;61.70;;;;;;4999677;28;20459;-76
2022/12/14 11:31:02;;;;;;;13.47;9.77;;;6.00;60.60;;;;;;5002681;28;20467;-76
2022/12/14 11:33:34;;;;;;;12.50;8.77;;;6.10;60.20;;;;;;5001489;28;20468;-76
2022/12/14 11:36:01;;;;;;;11.40;8.87;;;6.20;59.70;;;;;;5001286;28;20436;-76
2022/12/14 11:38:29;;;;;;;15.73;10.30;;;6.30;59.10;;;;;;5000266;28;20508;-76
2022/12/14 11:41:00;;;;;;;12.70;10.23;;;6.30;58.30;;;;;;4998176;28;20951;-77
2022/12/14 11:43:29;;;;;;;13.57;9.73;;;6.40;57.90;;;;;;4999053;28;20437;-77
2022/12/14 11:45:58;;;;;;;14.17;10.50;;;6.60;57.00;;;;;;4997817;28;20451;-77
2022/12/14 11:48:27;;;;;;;17.20;8.97;;;6.90;56.40;;;;;;4997595;28;20457;-76
2022/12/14 11:51:04;;;;;;;18.90;10.30;;;7.40;55.80;;;;;;4997314;28;20607;-78
2022/12/14 11:53:31;;;;;;;16.30;9.47;;;7.80;54.10;;;;;;4996655;28;20806;-77
2022/12/14 11:56:02;;;;;;;16.60;10.23;;;8.20;52.60;;;;;;4997926;28;20461;-77
2022/12/14 11:58:31;;;;;;;11.93;9.17;;;8.70;51.20;;;;;;4999146;28;20440;-77
2022/12/14 12:01:04;;;;;;;13.97;10.10;;;9.00;50.40;;;;;;4995804;28;20923;-76
2022/12/14 12:03:34;;;;;;;15.50;10.50;;;9.50;49.40;;;;;;4995549;28;20908;-77
2022/12/14 12:06:05;;;;;;;16.00;9.90;;;9.90;48.50;;;;;;4996401;28;20435;-76
2022/12/14 12:08:35;;;;;;;15.07;10.00;;;10.30;46.50;;;;;;4996251;28;20431;-77
2022/12/14 12:11:05;;;;;;;12.07;9.87;;;10.70;45.40;;;;;;4996213;28;20474;-77
2022/12/14 12:13:36;;;;;;;11.20;9.23;;;11.00;44.00;;;;;;4996105;28;20446;-77
2022/12/14 12:16:06;;;;;;;13.33;10.60;;;11.20;42.60;;;;;;4995749;28;20493;-77
2022/12/14 12:18:36;;;;;;;12.40;9.63;;;11.40;42.50;;;;;;4995683;28;20487;-77
2022/12/14 12:21:08;;;;;;;12.10;10.20;;;11.60;42.50;;;;;;4995435;28;20473;-77
2022/12/14 12:23:41;;;;;;;16.13;12.50;;;11.70;41.40;;;;;;4996003;28;20516;-77
2022/12/14 12:26:15;;;;;;;12.13;8.80;;;11.60;41.20;;;;;;4995374;28;20452;-77
2022/12/14 12:28:47;;;;;;;15.37;10.20;;;11.40;41.20;;;;;;4995547;28;20559;-76
2022/12/14 12:31:18;;;;;;;10.80;9.43;;;11.00;41.90;;;;;;4995745;28;20476;-77
2022/12/14 12:33:50;;;;;;;14.50;11.30;;;10.70;42.90;;;;;;4995227;28;20472;-77
2022/12/14 12:36:19;;;;;;;10.13;8.80;;;10.30;43.60;;;;;;4995223;28;20455;-77
2022/12/14 12:39:01;;;;;;;13.07;10.53;;;9.90;45.10;;;;;;4995013;28;20456;-77
2022/12/14 12:41:35;;;;;;;16.67;10.30;;;9.60;45.90;;;;;;4995190;28;20442;-77
2022/12/14 12:44:15;;;;;;;13.17;10.13;;;9.20;46.80;;;;;;4995151;28;20481;-77
2022/12/14 12:46:49;;;;;;;11.77;9.33;;;8.80;47.30;;;;;;4996041;28;20439;-77
2022/12/14 12:49:15;;;;;;;11.60;9.50;;;8.40;47.90;;;;;;4995035;28;20471;-77
2022/12/14 12:51:46;;;;;;;15.20;10.43;;;8.10;48.80;;;;;;5001114;28;20480;-77
2022/12/14 12:54:18;;;;;;;12.50;11.10;;;7.80;49.60;;;;;;5006449;28;20477;-77
2022/12/14 12:56:49;;;;;;;12.90;10.23;;;7.50;49.90;;;;;;5001620;28;20446;-77
2022/12/14 12:59:19;;;;;;;15.50;10.67;;;7.50;50.50;;;;;;5002288;28;20430;-77
2022/12/14 13:01:49;;;;;;;12.93;10.60;;;7.50;50.90;;;;;;4998929;28;20433;-77
2022/12/14 13:04:26;;;;;;;14.27;10.30;;;7.70;50.90;;;;;;5001614;28;20480;-77
2022/12/14 13:06:56;;;;;;;12.70;9.83;;;7.80;50.80;;;;;;5000844;28;20433;-77
2022/12/14 13:09:36;;;;;;;14.00;10.13;;;7.90;49.80;;;;;;4998556;28;20457;-77
2022/12/14 13:12:06;;;;;;;13.97;9.97;;;8.00;49.20;;;;;;5003901;28;20442;-76
2022/12/14 13:14:38;;;;;;;13.60;10.10;;;8.00;48.60;;;;;;5007787;28;20500;-77
2022/12/14 13:17:24;;;;;;;11.00;9.80;;;7.80;48.30;;;;;;5012189;28;20433;-77
2022/12/14 13:19:53;;;;;;;13.43;10.70;;;7.50;49.10;;;;;;5006172;28;20433;-77